Lakeridge, Washington
Current Conditions -  °F | °C
As of 5:58 PM on Tuesday 21 Oct 2014 (Local Time) from KTCM Reporting Station
Overcast Overcast  
Wind Chill: 60°   Ceiling: 6000
Heat Index: 60°   Visibility: 10mi
Dew Point: 49°   Wind: 9mph
Humidity: 67%   Direction: 170°S
Pressure: 29.88"   Gusts: NA
Location:  47.1874°N, 122.164°W
Report Text: KTCM 220058Z AUTO 17008KT 10SM OVC060 16/09 A2988 RMK AO2 SLP122 T01560094 $
Loading
Personal Weather Stations






























Interactive Weather Map
Tropical Storm Tracking
New forecast layout! Learn more

10-Day Weather Forecast

Advertisements
Track Severe Weather on mobile